sensor_id;sensor_type;location;lat;lon;timestamp;pressure;altitude;pressure_sealevel;temperature;humidity
2401;BME280;1211;43.200;27.914;2023-04-01T00:00:59;100381.06;;;11.26;nan
2401;BME280;1211;43.200;27.914;2023-04-01T00:03:27;100372.34;;;11.36;nan
2401;BME280;1211;43.200;27.914;2023-04-01T00:05:54;100375.25;;;11.51;nan
2401;BME280;1211;43.200;27.914;2023-04-01T00:08:21;100367.06;;;11.43;nan
2401;BME280;1211;43.200;27.914;2023-04-01T00:10:48;100375.69;;;11.41;nan
2401;BME280;1211;43.200;27.914;2023-04-01T00:13:16;100366.72;;;11.32;nan
2401;BME280;1211;43.200;27.914;2023-04-01T00:15:43;100370.28;;;11.33;nan
2401;BME280;1211;43.200;27.914;2023-04-01T00:18:10;100369.19;;;11.13;nan
2401;BME280;1211;43.200;27.914;2023-04-01T00:20:37;100373.88;;;11.12;nan
2401;BME280;1211;43.200;27.914;2023-04-01T00:23:04;100372.13;;;11.29;nan
2401;BME280;1211;43.200;27.914;2023-04-01T00:25:31;100369.59;;;11.36;nan
2401;BME280;1211;43.200;27.914;2023-04-01T00:27:58;100365.31;;;11.26;nan
2401;BME280;1211;43.200;27.914;2023-04-01T00:30:26;100371.75;;;11.30;nan
2401;BME280;1211;43.200;27.914;2023-04-01T00:32:52;100360.81;;;11.09;nan
2401;BME280;1211;43.200;27.914;2023-04-01T00:35:19;100356.50;;;10.88;nan
2401;BME280;1211;43.200;27.914;2023-04-01T00:37:46;100354.94;;;10.78;nan
2401;BME280;1211;43.200;27.914;2023-04-01T00:40:21;100350.06;;;10.63;nan
2401;BME280;1211;43.200;27.914;2023-04-01T00:42:48;100348.44;;;10.83;nan
2401;BME280;1211;43.200;27.914;2023-04-01T00:45:23;100345.06;;;10.77;nan
2401;BME280;1211;43.200;27.914;2023-04-01T00:47:53;100337.88;;;10.85;nan
2401;BME280;1211;43.200;27.914;2023-04-01T00:50:20;100339.75;;;10.93;nan
2401;BME280;1211;43.200;27.914;2023-04-01T00:52:48;100332.28;;;10.93;nan
2401;BME280;1211;43.200;27.914;2023-04-01T00:55:14;100332.69;;;10.83;nan
2401;BME280;1211;43.200;27.914;2023-04-01T00:57:43;100338.59;;;10.94;nan
2401;BME280;1211;43.200;27.914;2023-04-01T01:00:10;100346.41;;;10.92;nan
2401;BME280;1211;43.200;27.914;2023-04-01T01:02:38;100340.63;;;10.85;nan
2401;BME280;1211;43.200;27.914;2023-04-01T01:05:09;100334.41;;;10.55;nan
2401;BME280;1211;43.200;27.914;2023-04-01T01:07:38;100340.88;;;10.59;nan
2401;BME280;1211;43.200;27.914;2023-04-01T01:10:09;100343.47;;;10.76;nan
2401;BME280;1211;43.200;27.914;2023-04-01T01:12:39;100356.09;;;11.10;nan
2401;BME280;1211;43.200;27.914;2023-04-01T01:15:09;100337.47;;;11.07;nan
2401;BME280;1211;43.200;27.914;2023-04-01T01:17:41;100354.00;;;11.07;nan
2401;BME280;1211;43.200;27.914;2023-04-01T01:20:29;100347.94;;;11.13;nan
2401;BME280;1211;43.200;27.914;2023-04-01T01:23:05;100341.31;;;11.27;nan
2401;BME280;1211;43.200;27.914;2023-04-01T01:25:39;100336.72;;;11.31;nan
2401;BME280;1211;43.200;27.914;2023-04-01T01:28:15;100329.94;;;11.40;nan
2401;BME280;1211;43.200;27.914;2023-04-01T01:30:49;100331.81;;;11.48;nan
2401;BME280;1211;43.200;27.914;2023-04-01T01:35:56;100324.56;;;11.44;nan
2401;BME280;1211;43.200;27.914;2023-04-01T01:38:26;100318.34;;;11.47;nan
2401;BME280;1211;43.200;27.914;2023-04-01T01:40:54;100320.88;;;11.52;nan
2401;BME280;1211;43.200;27.914;2023-04-01T01:43:24;100319.41;;;11.54;nan
2401;BME280;1211;43.200;27.914;2023-04-01T01:45:52;100322.88;;;11.51;nan
2401;BME280;1211;43.200;27.914;2023-04-01T01:48:20;100326.78;;;11.50;nan
2401;BME280;1211;43.200;27.914;2023-04-01T01:50:48;100333.91;;;11.51;nan
2401;BME280;1211;43.200;27.914;2023-04-01T01:53:18;100332.13;;;11.35;nan
2401;BME280;1211;43.200;27.914;2023-04-01T01:55:45;100341.13;;;10.99;nan
2401;BME280;1211;43.200;27.914;2023-04-01T01:58:13;100338.78;;;10.77;nan
2401;BME280;1211;43.200;27.914;2023-04-01T02:00:43;100344.97;;;11.19;nan
2401;BME280;1211;43.200;27.914;2023-04-01T02:03:11;100329.50;;;11.38;nan
2401;BME280;1211;43.200;27.914;2023-04-01T02:05:39;100323.28;;;11.41;nan
2401;BME280;1211;43.200;27.914;2023-04-01T02:08:06;100320.78;;;11.48;nan
2401;BME280;1211;43.200;27.914;2023-04-01T02:10:37;100327.41;;;11.35;nan
2401;BME280;1211;43.200;27.914;2023-04-01T02:13:07;100317.31;;;11.27;nan
2401;BME280;1211;43.200;27.914;2023-04-01T02:15:37;100310.41;;;11.21;nan
2401;BME280;1211;43.200;27.914;2023-04-01T02:18:07;100310.06;;;11.35;nan
2401;BME280;1211;43.200;27.914;2023-04-01T02:20:34;100302.31;;;10.92;nan
2401;BME280;1211;43.200;27.914;2023-04-01T02:23:02;100292.00;;;11.01;nan
2401;BME280;1211;43.200;27.914;2023-04-01T02:25:30;100293.38;;;11.07;nan
2401;BME280;1211;43.200;27.914;2023-04-01T02:28:01;100293.06;;;11.21;nan
2401;BME280;1211;43.200;27.914;2023-04-01T02:30:29;100295.56;;;11.13;nan
2401;BME280;1211;43.200;27.914;2023-04-01T02:32:56;100300.56;;;10.54;nan
2401;BME280;1211;43.200;27.914;2023-04-01T02:35:23;100299.19;;;10.27;nan
2401;BME280;1211;43.200;27.914;2023-04-01T02:37:50;100293.72;;;10.93;nan
2401;BME280;1211;43.200;27.914;2023-04-01T02:40:18;100296.75;;;10.80;nan
2401;BME280;1211;43.200;27.914;2023-04-01T02:42:45;100292.78;;;11.01;nan
2401;BME280;1211;43.200;27.914;2023-04-01T02:45:13;100285.31;;;10.90;nan
2401;BME280;1211;43.200;27.914;2023-04-01T02:47:40;100274.78;;;11.04;nan
2401;BME280;1211;43.200;27.914;2023-04-01T02:50:07;100276.38;;;10.93;nan
2401;BME280;1211;43.200;27.914;2023-04-01T02:52:35;100276.41;;;11.05;nan
2401;BME280;1211;43.200;27.914;2023-04-01T02:55:01;100273.88;;;11.12;nan
2401;BME280;1211;43.200;27.914;2023-04-01T02:57:28;100264.63;;;10.84;nan
2401;BME280;1211;43.200;27.914;2023-04-01T02:59:55;100269.72;;;11.06;nan
2401;BME280;1211;43.200;27.914;2023-04-01T03:02:23;100264.50;;;10.80;nan
2401;BME280;1211;43.200;27.914;2023-04-01T03:04:50;100249.44;;;11.23;nan
2401;BME280;1211;43.200;27.914;2023-04-01T03:07:16;100247.88;;;10.89;nan
2401;BME280;1211;43.200;27.914;2023-04-01T03:09:43;100257.91;;;11.30;nan
2401;BME280;1211;43.200;27.914;2023-04-01T03:12:10;100250.53;;;10.97;nan
2401;BME280;1211;43.200;27.914;2023-04-01T03:14:36;100237.38;;;11.15;nan
2401;BME280;1211;43.200;27.914;2023-04-01T03:17:03;100239.78;;;11.29;nan
2401;BME280;1211;43.200;27.914;2023-04-01T03:19:32;100240.81;;;11.24;nan
2401;BME280;1211;43.200;27.914;2023-04-01T03:21:58;100239.09;;;11.32;nan
2401;BME280;1211;43.200;27.914;2023-04-01T03:24:25;100238.06;;;11.48;nan
2401;BME280;1211;43.200;27.914;2023-04-01T03:26:51;100229.53;;;11.29;nan
2401;BME280;1211;43.200;27.914;2023-04-01T03:29:18;100226.91;;;11.45;nan
2401;BME280;1211;43.200;27.914;2023-04-01T03:31:45;100220.94;;;11.55;nan
2401;BME280;1211;43.200;27.914;2023-04-01T03:34:11;100219.88;;;11.60;nan
2401;BME280;1211;43.200;27.914;2023-04-01T03:36:39;100220.03;;;11.39;nan
2401;BME280;1211;43.200;27.914;2023-04-01T03:39:06;100229.78;;;11.48;nan
2401;BME280;1211;43.200;27.914;2023-04-01T03:41:34;100231.13;;;10.82;nan
2401;BME280;1211;43.200;27.914;2023-04-01T03:44:01;100235.41;;;11.15;nan
2401;BME280;1211;43.200;27.914;2023-04-01T03:46:28;100237.94;;;11.21;nan
2401;BME280;1211;43.200;27.914;2023-04-01T03:48:54;100241.47;;;10.97;nan
2401;BME280;1211;43.200;27.914;2023-04-01T03:51:21;100243.88;;;10.86;nan
2401;BME280;1211;43.200;27.914;2023-04-01T03:53:50;100246.84;;;10.81;nan
2401;BME280;1211;43.200;27.914;2023-04-01T03:56:16;100239.56;;;11.22;nan
2401;BME280;1211;43.200;27.914;2023-04-01T03:58:43;100232.28;;;11.66;nan
2401;BME280;1211;43.200;27.914;2023-04-01T04:01:14;100245.19;;;11.25;nan
2401;BME280;1211;43.200;27.914;2023-04-01T04:03:40;100251.38;;;11.58;nan
2401;BME280;1211;43.200;27.914;2023-04-01T04:06:10;100254.81;;;11.68;nan
2401;BME280;1211;43.200;27.914;2023-04-01T04:08:36;100251.03;;;11.60;nan
2401;BME280;1211;43.200;27.914;2023-04-01T04:11:04;100246.78;;;11.63;nan
2401;BME280;1211;43.200;27.914;2023-04-01T04:13:31;100237.34;;;11.76;nan
2401;BME280;1211;43.200;27.914;2023-04-01T04:15:58;100242.13;;;12.03;nan
2401;BME280;1211;43.200;27.914;2023-04-01T04:18:25;100231.19;;;12.34;nan
2401;BME280;1211;43.200;27.914;2023-04-01T04:20:51;100230.25;;;12.43;nan
2401;BME280;1211;43.200;27.914;2023-04-01T04:23:18;100226.34;;;12.44;nan
2401;BME280;1211;43.200;27.914;2023-04-01T04:25:52;100233.72;;;12.39;nan
2401;BME280;1211;43.200;27.914;2023-04-01T04:28:21;100236.31;;;13.07;nan
2401;BME280;1211;43.200;27.914;2023-04-01T04:30:47;100240.94;;;13.66;nan
2401;BME280;1211;43.200;27.914;2023-04-01T04:33:14;100233.78;;;14.00;nan
2401;BME280;1211;43.200;27.914;2023-04-01T04:35:41;100224.56;;;14.50;nan
2401;BME280;1211;43.200;27.914;2023-04-01T04:38:07;100225.84;;;14.98;nan
2401;BME280;1211;43.200;27.914;2023-04-01T04:40:35;100218.31;;;15.21;nan
2401;BME280;1211;43.200;27.914;2023-04-01T04:43:02;100211.34;;;14.24;nan
2401;BME280;1211;43.200;27.914;2023-04-01T04:45:30;100220.72;;;13.31;nan
2401;BME280;1211;43.200;27.914;2023-04-01T04:47:57;100218.66;;;12.96;nan
2401;BME280;1211;43.200;27.914;2023-04-01T04:50:24;100217.56;;;12.85;nan
2401;BME280;1211;43.200;27.914;2023-04-01T04:52:51;100222.75;;;13.84;nan
2401;BME280;1211;43.200;27.914;2023-04-01T04:55:17;100220.00;;;13.84;nan
2401;BME280;1211;43.200;27.914;2023-04-01T04:57:44;100217.41;;;13.09;nan
2401;BME280;1211;43.200;27.914;2023-04-01T05:00:11;100224.56;;;12.95;nan
2401;BME280;1211;43.200;27.914;2023-04-01T05:02:39;100228.13;;;12.52;nan
2401;BME280;1211;43.200;27.914;2023-04-01T05:05:06;100230.78;;;12.76;nan
2401;BME280;1211;43.200;27.914;2023-04-01T05:07:33;100218.31;;;13.13;nan
2401;BME280;1211;43.200;27.914;2023-04-01T05:10:00;100224.59;;;13.61;nan
2401;BME280;1211;43.200;27.914;2023-04-01T05:12:26;100215.50;;;13.60;nan
2401;BME280;1211;43.200;27.914;2023-04-01T05:14:53;100212.69;;;13.41;nan
2401;BME280;1211;43.200;27.914;2023-04-01T05:17:20;100209.56;;;13.43;nan
2401;BME280;1211;43.200;27.914;2023-04-01T05:19:48;100207.25;;;13.80;nan
2401;BME280;1211;43.200;27.914;2023-04-01T05:22:14;100214.19;;;14.28;nan
2401;BME280;1211;43.200;27.914;2023-04-01T05:24:41;100201.97;;;14.48;nan
2401;BME280;1211;43.200;27.914;2023-04-01T05:27:08;100205.47;;;14.45;nan
2401;BME280;1211;43.200;27.914;2023-04-01T05:29:34;100198.03;;;14.49;nan
2401;BME280;1211;43.200;27.914;2023-04-01T05:32:01;100184.44;;;14.25;nan
2401;BME280;1211;43.200;27.914;2023-04-01T05:34:28;100184.19;;;14.11;nan
2401;BME280;1211;43.200;27.914;2023-04-01T05:36:56;100188.47;;;14.27;nan
2401;BME280;1211;43.200;27.914;2023-04-01T05:39:23;100193.16;;;14.65;nan
2401;BME280;1211;43.200;27.914;2023-04-01T05:41:49;100186.41;;;14.86;nan
2401;BME280;1211;43.200;27.914;2023-04-01T05:44:16;100182.31;;;15.25;nan
2401;BME280;1211;43.200;27.914;2023-04-01T05:46:43;100174.75;;;15.75;nan
2401;BME280;1211;43.200;27.914;2023-04-01T05:49:09;100177.88;;;16.03;nan
2401;BME280;1211;43.200;27.914;2023-04-01T05:51:36;100168.72;;;16.32;nan
2401;BME280;1211;43.200;27.914;2023-04-01T05:54:05;100162.91;;;16.81;nan
2401;BME280;1211;43.200;27.914;2023-04-01T05:56:31;100165.69;;;17.33;nan
2401;BME280;1211;43.200;27.914;2023-04-01T05:58:58;100170.94;;;18.21;nan
2401;BME280;1211;43.200;27.914;2023-04-01T06:01:25;100169.53;;;18.69;nan
2401;BME280;1211;43.200;27.914;2023-04-01T06:03:52;100157.56;;;19.47;nan
2401;BME280;1211;43.200;27.914;2023-04-01T06:06:20;100156.56;;;20.13;nan
2401;BME280;1211;43.200;27.914;2023-04-01T06:08:49;100163.38;;;20.05;nan
2401;BME280;1211;43.200;27.914;2023-04-01T06:11:21;100156.63;;;20.03;nan
2401;BME280;1211;43.200;27.914;2023-04-01T06:14:01;100160.75;;;19.24;nan
2401;BME280;1211;43.200;27.914;2023-04-01T06:16:36;100166.75;;;18.76;nan
2401;BME280;1211;43.200;27.914;2023-04-01T06:19:09;100165.25;;;17.92;nan
2401;BME280;1211;43.200;27.914;2023-04-01T06:24:30;100159.16;;;17.69;nan
2401;BME280;1211;43.200;27.914;2023-04-01T06:27:04;100155.78;;;17.39;nan
2401;BME280;1211;43.200;27.914;2023-04-01T06:29:42;100152.47;;;17.77;nan
2401;BME280;1211;43.200;27.914;2023-04-01T06:32:26;100147.78;;;17.30;nan
2401;BME280;1211;43.200;27.914;2023-04-01T06:35:03;100155.25;;;17.22;nan
2401;BME280;1211;43.200;27.914;2023-04-01T06:37:41;100150.38;;;17.60;nan
2401;BME280;1211;43.200;27.914;2023-04-01T06:42:56;100136.91;;;17.73;nan
2401;BME280;1211;43.200;27.914;2023-04-01T06:45:28;100131.97;;;16.49;nan
2401;BME280;1211;43.200;27.914;2023-04-01T06:48:02;100135.13;;;16.11;nan
2401;BME280;1211;43.200;27.914;2023-04-01T06:50:33;100134.28;;;16.44;nan
2401;BME280;1211;43.200;27.914;2023-04-01T06:53:04;100138.91;;;16.66;nan
2401;BME280;1211;43.200;27.914;2023-04-01T06:55:34;100135.91;;;16.89;nan
2401;BME280;1211;43.200;27.914;2023-04-01T06:58:10;100131.97;;;16.90;nan
2401;BME280;1211;43.200;27.914;2023-04-01T07:00:39;100135.75;;;17.74;nan
2401;BME280;1211;43.200;27.914;2023-04-01T07:03:10;100136.66;;;18.02;nan
2401;BME280;1211;43.200;27.914;2023-04-01T07:05:41;100135.03;;;17.94;nan
2401;BME280;1211;43.200;27.914;2023-04-01T07:08:10;100142.81;;;17.60;nan
2401;BME280;1211;43.200;27.914;2023-04-01T07:10:41;100148.41;;;17.64;nan
2401;BME280;1211;43.200;27.914;2023-04-01T07:13:12;100148.94;;;17.25;nan
2401;BME280;1211;43.200;27.914;2023-04-01T07:15:41;100143.22;;;17.04;nan
2401;BME280;1211;43.200;27.914;2023-04-01T07:18:10;100136.28;;;16.87;nan
2401;BME280;1211;43.200;27.914;2023-04-01T07:20:38;100134.91;;;16.64;nan
2401;BME280;1211;43.200;27.914;2023-04-01T07:23:06;100131.72;;;16.65;nan
2401;BME280;1211;43.200;27.914;2023-04-01T07:25:34;100125.59;;;16.86;nan
2401;BME280;1211;43.200;27.914;2023-04-01T07:28:02;100123.69;;;16.57;nan
2401;BME280;1211;43.200;27.914;2023-04-01T07:30:33;100127.53;;;15.75;nan
2401;BME280;1211;43.200;27.914;2023-04-01T07:33:04;100124.75;;;16.08;nan
2401;BME280;1211;43.200;27.914;2023-04-01T07:35:36;100111.88;;;16.26;nan
2401;BME280;1211;43.200;27.914;2023-04-01T07:38:09;100121.28;;;16.55;nan
2401;BME280;1211;43.200;27.914;2023-04-01T07:40:39;100120.50;;;16.55;nan
2401;BME280;1211;43.200;27.914;2023-04-01T07:43:22;100113.59;;;16.82;nan
2401;BME280;1211;43.200;27.914;2023-04-01T07:45:56;100105.25;;;17.37;nan
2401;BME280;1211;43.200;27.914;2023-04-01T07:48:28;100104.72;;;17.17;nan
2401;BME280;1211;43.200;27.914;2023-04-01T07:50:59;100099.09;;;16.18;nan
2401;BME280;1211;43.200;27.914;2023-04-01T07:53:30;100103.13;;;15.91;nan
2401;BME280;1211;43.200;27.914;2023-04-01T07:56:02;100101.72;;;16.04;nan
2401;BME280;1211;43.200;27.914;2023-04-01T07:58:32;100090.59;;;16.85;nan
2401;BME280;1211;43.200;27.914;2023-04-01T08:01:04;100094.72;;;17.05;nan
2401;BME280;1211;43.200;27.914;2023-04-01T08:03:38;100086.38;;;16.58;nan
2401;BME280;1211;43.200;27.914;2023-04-01T08:06:10;100083.50;;;16.91;nan
2401;BME280;1211;43.200;27.914;2023-04-01T08:08:42;100090.06;;;17.20;nan
2401;BME280;1211;43.200;27.914;2023-04-01T08:11:14;100073.34;;;17.99;nan
2401;BME280;1211;43.200;27.914;2023-04-01T08:13:45;100071.13;;;17.50;nan
2401;BME280;1211;43.200;27.914;2023-04-01T08:16:17;100069.38;;;16.63;nan
2401;BME280;1211;43.200;27.914;2023-04-01T08:18:47;100051.50;;;16.64;nan
2401;BME280;1211;43.200;27.914;2023-04-01T08:21:19;100066.19;;;17.15;nan
2401;BME280;1211;43.200;27.914;2023-04-01T08:23:47;100056.28;;;17.21;nan
2401;BME280;1211;43.200;27.914;2023-04-01T08:26:16;100053.53;;;17.32;nan
2401;BME280;1211;43.200;27.914;2023-04-01T08:28:49;100053.59;;;17.43;nan
2401;BME280;1211;43.200;27.914;2023-04-01T08:31:22;100047.06;;;18.00;nan
2401;BME280;1211;43.200;27.914;2023-04-01T08:33:52;100053.81;;;17.92;nan
2401;BME280;1211;43.200;27.914;2023-04-01T08:36:20;100058.22;;;18.00;nan
2401;BME280;1211;43.200;27.914;2023-04-01T08:38:49;100050.47;;;17.55;nan
2401;BME280;1211;43.200;27.914;2023-04-01T08:44:08;100049.75;;;16.96;nan
2401;BME280;1211;43.200;27.914;2023-04-01T08:47:05;100041.66;;;17.46;nan
2401;BME280;1211;43.200;27.914;2023-04-01T08:57:53;100037.22;;;18.70;nan
2401;BME280;1211;43.200;27.914;2023-04-01T09:00:25;100036.31;;;19.23;nan
2401;BME280;1211;43.200;27.914;2023-04-01T09:03:05;100033.31;;;19.83;nan
2401;BME280;1211;43.200;27.914;2023-04-01T09:05:40;100023.31;;;19.82;nan
2401;BME280;1211;43.200;27.914;2023-04-01T09:08:16;100027.16;;;19.08;nan
2401;BME280;1211;43.200;27.914;2023-04-01T09:10:54;100023.97;;;19.17;nan
2401;BME280;1211;43.200;27.914;2023-04-01T09:13:27;100013.75;;;19.87;nan
2401;BME280;1211;43.200;27.914;2023-04-01T09:16:10;100019.13;;;20.19;nan
2401;BME280;1211;43.200;27.914;2023-04-01T09:18:44;100009.88;;;20.25;nan
2401;BME280;1211;43.200;27.914;2023-04-01T09:24:09;100001.75;;;19.83;nan
2401;BME280;1211;43.200;27.914;2023-04-01T09:26:46;100011.53;;;19.46;nan
2401;BME280;1211;43.200;27.914;2023-04-01T09:29:18;100004.69;;;19.54;nan
2401;BME280;1211;43.200;27.914;2023-04-01T09:34:43;99997.78;;;19.84;nan
2401;BME280;1211;43.200;27.914;2023-04-01T09:37:20;99992.47;;;19.09;nan
2401;BME280;1211;43.200;27.914;2023-04-01T09:39:54;99992.97;;;18.62;nan
2401;BME280;1211;43.200;27.914;2023-04-01T09:42:41;99992.50;;;17.92;nan
2401;BME280;1211;43.200;27.914;2023-04-01T09:45:09;99980.13;;;17.61;nan
2401;BME280;1211;43.200;27.914;2023-04-01T09:47:47;99976.41;;;17.40;nan
2401;BME280;1211;43.200;27.914;2023-04-01T09:50:27;99969.63;;;17.34;nan
2401;BME280;1211;43.200;27.914;2023-04-01T09:52:57;99960.81;;;17.17;nan
2401;BME280;1211;43.200;27.914;2023-04-01T09:55:42;99955.66;;;17.23;nan
2401;BME280;1211;43.200;27.914;2023-04-01T10:15:05;99916.38;;;17.39;nan
2401;BME280;1211;43.200;27.914;2023-04-01T10:17:51;99903.25;;;16.53;nan
2401;BME280;1211;43.200;27.914;2023-04-01T10:20:27;99895.00;;;16.67;nan
2401;BME280;1211;43.200;27.914;2023-04-01T10:23:02;99896.22;;;16.15;nan
2401;BME280;1211;43.200;27.914;2023-04-01T10:25:49;99905.50;;;16.98;nan
2401;BME280;1211;43.200;27.914;2023-04-01T10:28:30;99913.72;;;17.95;nan
2401;BME280;1211;43.200;27.914;2023-04-01T10:34:01;99910.13;;;17.84;nan
2401;BME280;1211;43.200;27.914;2023-04-01T10:36:48;99904.97;;;18.07;nan
2401;BME280;1211;43.200;27.914;2023-04-01T10:44:57;99897.38;;;18.04;nan
2401;BME280;1211;43.200;27.914;2023-04-01T10:47:51;99902.13;;;18.53;nan
2401;BME280;1211;43.200;27.914;2023-04-01T10:50:36;99909.63;;;17.43;nan
2401;BME280;1211;43.200;27.914;2023-04-01T10:53:16;99898.06;;;17.38;nan
2401;BME280;1211;43.200;27.914;2023-04-01T10:58:52;99882.53;;;17.29;nan
2401;BME280;1211;43.200;27.914;2023-04-01T11:01:37;99877.81;;;17.55;nan
2401;BME280;1211;43.200;27.914;2023-04-01T11:04:24;99872.63;;;17.57;nan
2401;BME280;1211;43.200;27.914;2023-04-01T11:09:59;99867.44;;;17.30;nan
2401;BME280;1211;43.200;27.914;2023-04-01T11:23:47;99840.44;;;18.13;nan
2401;BME280;1211;43.200;27.914;2023-04-01T11:26:21;99845.94;;;17.24;nan
2401;BME280;1211;43.200;27.914;2023-04-01T11:29:09;99847.97;;;17.52;nan
2401;BME280;1211;43.200;27.914;2023-04-01T11:31:50;99841.94;;;17.18;nan
2401;BME280;1211;43.200;27.914;2023-04-01T11:37:03;99842.06;;;17.71;nan
2401;BME280;1211;43.200;27.914;2023-04-01T11:39:33;99835.69;;;17.74;nan
2401;BME280;1211;43.200;27.914;2023-04-01T11:42:09;99836.47;;;18.10;nan
2401;BME280;1211;43.200;27.914;2023-04-01T11:44:38;99837.66;;;17.56;nan
2401;BME280;1211;43.200;27.914;2023-04-01T11:47:13;99831.72;;;17.82;nan
2401;BME280;1211;43.200;27.914;2023-04-01T11:49:47;99838.56;;;19.04;nan
2401;BME280;1211;43.200;27.914;2023-04-01T11:52:19;99829.28;;;19.87;nan
2401;BME280;1211;43.200;27.914;2023-04-01T11:54:54;99822.38;;;19.50;nan
2401;BME280;1211;43.200;27.914;2023-04-01T11:57:38;99810.09;;;19.33;nan
2401;BME280;1211;43.200;27.914;2023-04-01T12:00:14;99809.16;;;19.99;nan
2401;BME280;1211;43.200;27.914;2023-04-01T12:02:51;99802.81;;;19.50;nan
2401;BME280;1211;43.200;27.914;2023-04-01T12:05:28;99793.69;;;19.35;nan
2401;BME280;1211;43.200;27.914;2023-04-01T12:08:05;99806.94;;;19.28;nan
2401;BME280;1211;43.200;27.914;2023-04-01T12:10:37;99805.13;;;18.97;nan
2401;BME280;1211;43.200;27.914;2023-04-01T12:13:09;99799.53;;;19.00;nan
2401;BME280;1211;43.200;27.914;2023-04-01T12:15:43;99803.63;;;18.74;nan
2401;BME280;1211;43.200;27.914;2023-04-01T12:18:15;99799.31;;;19.32;nan
2401;BME280;1211;43.200;27.914;2023-04-01T12:20:47;99783.69;;;18.83;nan
2401;BME280;1211;43.200;27.914;2023-04-01T12:23:19;99779.16;;;18.02;nan
2401;BME280;1211;43.200;27.914;2023-04-01T12:25:55;99775.19;;;17.92;nan
2401;BME280;1211;43.200;27.914;2023-04-01T12:28:29;99776.59;;;18.50;nan
2401;BME280;1211;43.200;27.914;2023-04-01T12:31:06;99789.47;;;18.16;nan
2401;BME280;1211;43.200;27.914;2023-04-01T12:33:45;99791.84;;;18.17;nan
2401;BME280;1211;43.200;27.914;2023-04-01T12:36:18;99781.41;;;18.53;nan
2401;BME280;1211;43.200;27.914;2023-04-01T12:38:50;99797.78;;;18.33;nan
2401;BME280;1211;43.200;27.914;2023-04-01T12:41:21;99802.19;;;18.31;nan
2401;BME280;1211;43.200;27.914;2023-04-01T12:44:06;99792.66;;;18.18;nan
2401;BME280;1211;43.200;27.914;2023-04-01T12:46:41;99788.28;;;18.13;nan
2401;BME280;1211;43.200;27.914;2023-04-01T12:49:23;99790.28;;;17.42;nan
2401;BME280;1211;43.200;27.914;2023-04-01T12:51:58;99790.66;;;17.19;nan
2401;BME280;1211;43.200;27.914;2023-04-01T12:54:37;99791.47;;;17.09;nan
2401;BME280;1211;43.200;27.914;2023-04-01T12:57:16;99780.72;;;18.03;nan
2401;BME280;1211;43.200;27.914;2023-04-01T12:59:53;99780.75;;;17.99;nan
2401;BME280;1211;43.200;27.914;2023-04-01T13:02:26;99781.16;;;17.94;nan
2401;BME280;1211;43.200;27.914;2023-04-01T13:05:12;99782.34;;;17.44;nan
2401;BME280;1211;43.200;27.914;2023-04-01T13:07:52;99776.78;;;17.76;nan
2401;BME280;1211;43.200;27.914;2023-04-01T13:10:24;99760.84;;;17.12;nan
2401;BME280;1211;43.200;27.914;2023-04-01T13:13:06;99763.63;;;17.23;nan
2401;BME280;1211;43.200;27.914;2023-04-01T13:15:38;99766.78;;;17.00;nan
2401;BME280;1211;43.200;27.914;2023-04-01T13:18:12;99765.59;;;17.01;nan
2401;BME280;1211;43.200;27.914;2023-04-01T13:20:43;99760.34;;;16.64;nan
2401;BME280;1211;43.200;27.914;2023-04-01T13:23:14;99755.41;;;16.29;nan
2401;BME280;1211;43.200;27.914;2023-04-01T13:25:46;99755.91;;;16.53;nan
2401;BME280;1211;43.200;27.914;2023-04-01T13:28:18;99748.81;;;16.66;nan
2401;BME280;1211;43.200;27.914;2023-04-01T13:30:49;99760.38;;;16.82;nan
2401;BME280;1211;43.200;27.914;2023-04-01T13:33:25;99763.19;;;16.89;nan
2401;BME280;1211;43.200;27.914;2023-04-01T13:35:57;99740.94;;;16.96;nan
2401;BME280;1211;43.200;27.914;2023-04-01T13:38:45;99731.03;;;17.48;nan
2401;BME280;1211;43.200;27.914;2023-04-01T13:41:17;99730.63;;;17.82;nan
2401;BME280;1211;43.200;27.914;2023-04-01T13:43:49;99737.78;;;17.90;nan
2401;BME280;1211;43.200;27.914;2023-04-01T13:46:33;99736.19;;;17.28;nan
2401;BME280;1211;43.200;27.914;2023-04-01T13:49:08;99718.31;;;17.65;nan
2401;BME280;1211;43.200;27.914;2023-04-01T13:57:25;99731.06;;;17.66;nan
2401;BME280;1211;43.200;27.914;2023-04-01T14:00:11;99717.91;;;17.77;nan
2401;BME280;1211;43.200;27.914;2023-04-01T14:03:00;99730.66;;;17.60;nan
2401;BME280;1211;43.200;27.914;2023-04-01T14:05:48;99731.44;;;17.64;nan
2401;BME280;1211;43.200;27.914;2023-04-01T14:11:05;99727.47;;;17.16;nan
2401;BME280;1211;43.200;27.914;2023-04-01T14:13:38;99720.22;;;16.76;nan
2401;BME280;1211;43.200;27.914;2023-04-01T14:16:14;99728.84;;;16.42;nan
2401;BME280;1211;43.200;27.914;2023-04-01T14:18:52;99724.13;;;16.54;nan
2401;BME280;1211;43.200;27.914;2023-04-01T14:21:28;99735.38;;;16.85;nan
2401;BME280;1211;43.200;27.914;2023-04-01T14:23:59;99733.81;;;16.99;nan
2401;BME280;1211;43.200;27.914;2023-04-01T14:26:30;99727.44;;;17.23;nan
2401;BME280;1211;43.200;27.914;2023-04-01T14:29:02;99725.06;;;17.28;nan
2401;BME280;1211;43.200;27.914;2023-04-01T14:34:31;99706.38;;;16.97;nan
2401;BME280;1211;43.200;27.914;2023-04-01T14:37:07;99708.38;;;17.07;nan
2401;BME280;1211;43.200;27.914;2023-04-01T14:42:33;99709.00;;;16.47;nan
2401;BME280;1211;43.200;27.914;2023-04-01T14:45:15;99710.72;;;16.77;nan
2401;BME280;1211;43.200;27.914;2023-04-01T14:47:48;99700.38;;;16.67;nan
2401;BME280;1211;43.200;27.914;2023-04-01T14:50:18;99705.19;;;17.02;nan
2401;BME280;1211;43.200;27.914;2023-04-01T14:52:49;99676.47;;;16.59;nan
2401;BME280;1211;43.200;27.914;2023-04-01T14:55:21;99677.47;;;15.94;nan
2401;BME280;1211;43.200;27.914;2023-04-01T14:57:59;99669.69;;;15.55;nan
2401;BME280;1211;43.200;27.914;2023-04-01T15:00:26;99667.38;;;15.68;nan
2401;BME280;1211;43.200;27.914;2023-04-01T15:02:55;99675.88;;;15.93;nan
2401;BME280;1211;43.200;27.914;2023-04-01T15:05:36;99658.75;;;15.84;nan
2401;BME280;1211;43.200;27.914;2023-04-01T15:08:08;99036.63;;;12.09;nan
2401;BME280;1211;43.200;27.914;2023-04-01T15:10:49;99663.94;;;15.89;nan
2401;BME280;1211;43.200;27.914;2023-04-01T15:13:21;99521.25;;;15.28;nan